createdAt,value
2022-11-18T00:01:34.930Z,99242.97
2022-11-18T00:04:01.637Z,99241.84
2022-11-18T00:06:29.826Z,99237.22
2022-11-18T00:08:57.781Z,99249.84
2022-11-18T00:11:44.748Z,99259.13
2022-11-18T00:14:20.817Z,99254.78
2022-11-18T00:16:49.400Z,99260.66
2022-11-18T00:19:16.135Z,99267.81
2022-11-18T00:21:42.749Z,99261.81
2022-11-18T00:24:09.797Z,99267.16
2022-11-18T00:26:36.417Z,99267.53
2022-11-18T00:29:04.707Z,99266.84
2022-11-18T00:31:31.089Z,99267.69
2022-11-18T00:33:57.495Z,99264.03
2022-11-18T00:36:23.935Z,99263.16
2022-11-18T00:38:50.267Z,99267.50
2022-11-18T00:41:16.644Z,99279.72
2022-11-18T00:43:43.040Z,99269.44
2022-11-18T00:46:11.374Z,99277.47
2022-11-18T00:48:38.728Z,99271.44
2022-11-18T00:51:13.457Z,99267.19
2022-11-18T00:53:39.813Z,99267.66
2022-11-18T00:56:07.149Z,99274.09
2022-11-18T00:58:34.423Z,99274.22
2022-11-18T01:01:00.846Z,99280.53
2022-11-18T01:03:28.102Z,99280.91
2022-11-18T01:05:54.524Z,99276.09
2022-11-18T01:08:21.558Z,99280.59
2022-11-18T01:10:49.422Z,99279.47
2022-11-18T01:13:21.040Z,99288.91
2022-11-18T01:15:51.387Z,99299.19
2022-11-18T01:18:19.570Z,99294.25
2022-11-18T01:20:46.735Z,99291.25
2022-11-18T01:23:14.207Z,99295.34
2022-11-18T01:25:42.371Z,99303.09
2022-11-18T01:28:09.008Z,99298.28
2022-11-18T01:30:37.995Z,99308.66
2022-11-18T01:33:05.520Z,99304.06
2022-11-18T01:35:39.566Z,99303.94
2022-11-18T01:38:06.495Z,99310.25
2022-11-18T01:40:33.931Z,99308.66
2022-11-18T01:43:00.424Z,99321.16
2022-11-18T01:45:34.064Z,99317.66
2022-11-18T01:48:16.410Z,99317.66
2022-11-18T01:50:52.020Z,99321.31
2022-11-18T01:53:24.572Z,99327.59
2022-11-18T01:55:54.316Z,99321.69
2022-11-18T01:58:27.433Z,99322.94
2022-11-18T02:00:54.136Z,99325.72
2022-11-18T02:03:21.988Z,99330.09
2022-11-18T02:05:52.310Z,99330.94
2022-11-18T02:08:19.467Z,99333.59
2022-11-18T02:10:46.164Z,99336.84
2022-11-18T02:13:13.193Z,99340.75
2022-11-18T02:16:03.414Z,99344.38
2022-11-18T02:18:46.470Z,99348.03
2022-11-18T02:22:00.430Z,99352.66
2022-11-18T02:24:40.374Z,99353.16
2022-11-18T02:27:43.272Z,99358.38
2022-11-18T02:30:12.410Z,99357.53
2022-11-18T02:32:43.318Z,99354.88
2022-11-18T02:35:16.893Z,99350.50
2022-11-18T02:37:54.427Z,99356.81
2022-11-18T02:40:53.804Z,99353.41
2022-11-18T02:43:26.715Z,99360.84
2022-11-18T02:45:59.428Z,99361.41
2022-11-18T02:48:29.799Z,99361.06
2022-11-18T02:50:58.171Z,99367.66
2022-11-18T02:53:27.695Z,99367.66
2022-11-18T02:55:55.298Z,99368.25
2022-11-18T02:58:23.369Z,99369.69
2022-11-18T03:00:59.248Z,99377.69
2022-11-18T03:03:36.257Z,99373.91
2022-11-18T03:06:21.762Z,99373.19
2022-11-18T03:09:16.468Z,99385.88
2022-11-18T03:11:49.012Z,99386.81
2022-11-18T03:14:31.773Z,99387.50
2022-11-18T03:17:01.177Z,99392.84
2022-11-18T03:19:40.517Z,99398.44
2022-11-18T03:22:32.838Z,99394.09
2022-11-18T03:25:10.583Z,99401.94
2022-11-18T03:28:00.554Z,99404.38
2022-11-18T03:30:30.441Z,99401.94
2022-11-18T03:33:02.407Z,99395.78
2022-11-18T03:35:32.896Z,99406.06
2022-11-18T03:38:11.097Z,99399.63
2022-11-18T03:40:40.436Z,99416.00
2022-11-18T03:43:13.694Z,99416.00
2022-11-18T03:45:52.974Z,99422.91
2022-11-18T03:48:25.201Z,99419.28
2022-11-18T03:50:57.683Z,99421.94
2022-11-18T03:53:27.804Z,99426.44
2022-11-18T03:56:02.215Z,99435.03
2022-11-18T03:58:53.787Z,99433.34
2022-11-18T04:01:48.075Z,99430.41
2022-11-18T04:04:14.773Z,99427.63
2022-11-18T04:07:15.266Z,99436.59
2022-11-18T04:09:47.523Z,99436.59
2022-11-18T04:12:18.013Z,99440.97
2022-11-18T04:14:47.913Z,99442.19
2022-11-18T04:17:17.446Z,99451.03
2022-11-18T04:19:43.971Z,99449.34
2022-11-18T04:22:10.739Z,99456.25
2022-11-18T04:24:37.606Z,99458.03
2022-11-18T04:27:05.175Z,99459.16
2022-11-18T04:29:32.514Z,99458.91
2022-11-18T04:32:00.270Z,99458.91
2022-11-18T04:34:27.013Z,99460.84
2022-11-18T04:36:53.710Z,99463.63
2022-11-18T04:39:20.454Z,99479.66
2022-11-18T04:41:55.511Z,99469.25
2022-11-18T04:44:23.780Z,99470.06
2022-11-18T04:46:50.555Z,99478.06
2022-11-18T04:49:17.201Z,99472.84
2022-11-18T04:51:44.570Z,99479.66
2022-11-18T04:54:11.643Z,99477.13
2022-11-18T04:56:38.954Z,99474.47
2022-11-18T04:59:06.395Z,99480.63
2022-11-18T05:01:32.909Z,99478.59
2022-11-18T05:04:03.713Z,99484.16
2022-11-18T05:06:31.119Z,99488.41
2022-11-18T05:08:58.490Z,99484.78
2022-11-18T05:11:44.123Z,99486.59
2022-11-18T05:14:10.975Z,99493.00
2022-11-18T05:16:37.475Z,99504.41
2022-11-18T05:19:06.982Z,99503.44
2022-11-18T05:21:33.720Z,99511.31
2022-11-18T05:24:01.044Z,99511.31
2022-11-18T05:26:27.817Z,99512.88
2022-11-18T05:28:54.679Z,99511.06
2022-11-18T05:31:21.164Z,99516.41
2022-11-18T05:33:47.514Z,99526.81
2022-11-18T05:36:17.175Z,99526.81
2022-11-18T05:38:44.278Z,99527.53
2022-11-18T05:41:31.331Z,99531.78
2022-11-18T05:43:58.287Z,99535.41
2022-11-18T05:46:25.081Z,99533.47
2022-11-18T05:48:51.459Z,99532.63
2022-11-18T05:51:17.806Z,99538.78
2022-11-18T05:53:44.384Z,99544.03
2022-11-18T05:56:16.438Z,99550.81
2022-11-18T05:58:42.833Z,99541.97
2022-11-18T06:01:10.497Z,99548.03
2022-11-18T06:03:39.765Z,99549.47
2022-11-18T06:06:08.564Z,99547.53
2022-11-18T06:08:39.182Z,99556.38
2022-11-18T06:11:08.037Z,99551.03
2022-11-18T06:13:50.253Z,99556.38
2022-11-18T06:16:20.813Z,99567.78
2022-11-18T06:18:47.240Z,99568.53
2022-11-18T06:21:13.701Z,99569.00
2022-11-18T06:23:42.050Z,99574.47
2022-11-18T06:26:09.363Z,99592.16
2022-11-18T06:28:36.633Z,99585.38
2022-11-18T06:31:02.998Z,99588.91
2022-11-18T06:33:29.333Z,99595.09
2022-11-18T06:35:55.691Z,99596.78
2022-11-18T06:38:24.947Z,99600.28
2022-11-18T06:40:51.919Z,99601.63
2022-11-18T06:43:36.784Z,99608.38
2022-11-18T06:46:23.247Z,99615.56
2022-11-18T06:48:49.774Z,99616.53
2022-11-18T06:51:16.613Z,99623.19
2022-11-18T06:53:43.031Z,99625.84
2022-11-18T06:56:12.575Z,99627.56
2022-11-18T06:58:39.449Z,99624.16
2022-11-18T07:01:11.329Z,99635.44
2022-11-18T07:03:39.463Z,99640.53
2022-11-18T07:06:06.914Z,99644.16
2022-11-18T07:08:35.809Z,99646.00
2022-11-18T07:11:02.525Z,99653.75
2022-11-18T07:13:28.966Z,99654.56
2022-11-18T07:15:55.310Z,99662.59
2022-11-18T07:18:21.708Z,99662.47
2022-11-18T07:20:48.402Z,99666.81
2022-11-18T07:23:14.790Z,99666.72
2022-11-18T07:25:45.119Z,99671.59
2022-11-18T07:28:11.787Z,99674.47
2022-11-18T07:30:38.145Z,99677.84
2022-11-18T07:33:04.496Z,99679.31
2022-11-18T07:35:30.857Z,99684.53
2022-11-18T07:37:57.191Z,99691.31
2022-11-18T07:40:23.552Z,99692.16
2022-11-18T07:42:49.918Z,99702.72
2022-11-18T07:45:23.540Z,99710.72
2022-11-18T07:47:49.930Z,99708.78
2022-11-18T07:50:17.299Z,99707.78
2022-11-18T07:52:44.083Z,99719.09
2022-11-18T07:55:10.692Z,99714.84
2022-11-18T07:57:37.065Z,99717.16
2022-11-18T08:00:04.587Z,99723.91
2022-11-18T08:02:38.434Z,99724.06
2022-11-18T08:05:05.244Z,99733.38
2022-11-18T08:07:31.814Z,99738.72
2022-11-18T08:09:58.258Z,99743.81
2022-11-18T08:12:24.606Z,99739.19
2022-11-18T08:14:50.969Z,99743.94
2022-11-18T08:17:17.302Z,99743.81
2022-11-18T08:19:43.663Z,99747.72
2022-11-18T08:22:10.033Z,99755.47
2022-11-18T08:24:36.435Z,99751.97
2022-11-18T08:27:02.782Z,99750.03
2022-11-18T08:29:29.452Z,99756.09
2022-11-18T08:31:56.100Z,99751.34
2022-11-18T08:34:22.527Z,99758.25
2022-11-18T08:36:48.882Z,99763.97
2022-11-18T08:39:15.408Z,99764.34
2022-11-18T08:41:43.498Z,99766.88
2022-11-18T08:44:12.455Z,99765.78
2022-11-18T08:46:39.090Z,99775.38
2022-11-18T08:49:05.494Z,99771.34
2022-11-18T08:51:31.973Z,99766.09
2022-11-18T08:53:58.459Z,99769.00
2022-11-18T08:56:25.346Z,99775.16
2022-11-18T08:58:52.516Z,99774.44
2022-11-18T09:01:19.015Z,99776.13
2022-11-18T09:03:45.610Z,99780.34
2022-11-18T09:06:20.559Z,99781.22
2022-11-18T09:08:47.293Z,99784.38
2022-11-18T09:11:16.230Z,99792.75
2022-11-18T09:14:14.275Z,99789.72
2022-11-18T09:16:31.670Z,99798.19
2022-11-18T09:19:04.823Z,99797.13
2022-11-18T09:21:40.952Z,99799.56
2022-11-18T09:24:08.365Z,99801.25
2022-11-18T09:26:35.271Z,99805.38
2022-11-18T09:29:01.616Z,99807.06
2022-11-18T09:31:27.983Z,99811.19
2022-11-18T09:33:54.346Z,99816.53
2022-11-18T09:36:23.502Z,99805.75
2022-11-18T09:38:53.265Z,99808.44
2022-11-18T09:41:36.247Z,99826.28
2022-11-18T09:44:35.730Z,99821.31
2022-11-18T09:47:04.831Z,99818.19
2022-11-18T09:49:37.653Z,99823.38
2022-11-18T09:52:10.911Z,99830.31
2022-11-18T09:54:38.505Z,99839.50
2022-11-18T09:57:25.107Z,99846.81
2022-11-18T09:59:52.270Z,99849.09
2022-11-18T10:02:27.650Z,99855.19
2022-11-18T10:04:56.966Z,99858.69
2022-11-18T10:07:38.353Z,99865.03
2022-11-18T10:10:15.059Z,99857.22
2022-11-18T10:12:52.355Z,99857.94
2022-11-18T10:15:37.295Z,99860.72
2022-11-18T10:18:52.884Z,99866.44
2022-11-18T10:21:45.856Z,99868.63
2022-11-18T10:24:23.433Z,99870.69
2022-11-18T10:26:56.315Z,99873.22
2022-11-18T10:29:23.653Z,99869.19
2022-11-18T10:32:06.041Z,99867.25
2022-11-18T10:34:34.527Z,99870.16
2022-11-18T10:37:07.842Z,99876.41
2022-11-18T10:39:47.314Z,99879.06
2022-11-18T10:42:25.115Z,99872.69
2022-11-18T10:44:51.474Z,99869.09
2022-11-18T10:47:32.749Z,99870.88
2022-11-18T10:50:01.350Z,99873.47
2022-11-18T10:52:29.884Z,99868.19
2022-11-18T10:55:29.092Z,99870.91
2022-11-18T10:58:00.132Z,99866.25
2022-11-18T11:00:41.256Z,99875.78
2022-11-18T11:03:28.810Z,99875.44
2022-11-18T11:06:26.554Z,99874.47
2022-11-18T11:08:56.148Z,99878.88
2022-11-18T11:11:32.614Z,99873.84
2022-11-18T11:14:27.693Z,99876.25
2022-11-18T11:17:07.013Z,99878.69
2022-11-18T11:19:40.738Z,99879.22
2022-11-18T11:22:12.036Z,99869.47
2022-11-18T11:24:38.856Z,99878.50
2022-11-18T11:30:18.769Z,99881.09
2022-11-18T11:33:03.807Z,99876.84
2022-11-18T11:35:38.415Z,99880.63
2022-11-18T11:38:17.980Z,99883.19
2022-11-18T11:40:56.157Z,99881.03
2022-11-18T11:43:32.125Z,99893.53
2022-11-18T11:46:15.354Z,99883.84
2022-11-18T11:48:50.659Z,99885.72
2022-11-18T11:51:28.777Z,99881.31
2022-11-18T11:54:23.611Z,99889.28
2022-11-18T11:57:03.844Z,99886.25
2022-11-18T11:59:48.990Z,99900.56
2022-11-18T12:02:27.578Z,99888.22
2022-11-18T12:05:16.462Z,99893.59
2022-11-18T12:07:49.653Z,99889.91
2022-11-18T12:10:31.524Z,99895.50
2022-11-18T12:13:19.775Z,99897.72
2022-11-18T12:16:08.081Z,99895.50
2022-11-18T12:18:40.452Z,99890.38
2022-11-18T12:21:06.867Z,99892.13
2022-11-18T12:23:34.112Z,99894.50
2022-11-18T12:26:08.552Z,99894.94
2022-11-18T12:28:42.678Z,99890.56
2022-11-18T12:31:18.285Z,99892.00
2022-11-18T12:33:52.403Z,99891.16
2022-11-18T12:36:26.987Z,99897.13
2022-11-18T12:38:54.399Z,99899.81
2022-11-18T12:42:00.388Z,99903.31
2022-11-18T12:44:29.164Z,99903.63
2022-11-18T12:46:59.533Z,99907.00
2022-11-18T12:49:25.837Z,99922.75
2022-11-18T12:52:03.115Z,99919.06
2022-11-18T12:54:33.457Z,99920.91
2022-11-18T12:57:13.123Z,99922.75
2022-11-18T12:59:39.523Z,99932.06
2022-11-18T13:02:11.850Z,99925.00
2022-11-18T13:04:44.989Z,99924.63
2022-11-18T13:07:45.997Z,99922.78
2022-11-18T13:10:23.338Z,99919.25
2022-11-18T13:12:52.177Z,99933.28
2022-11-18T13:15:37.437Z,99924.25
2022-11-18T13:18:12.929Z,99929.16
2022-11-18T13:20:41.638Z,99932.69
2022-11-18T13:23:35.538Z,99930.28
2022-11-18T13:26:07.801Z,99931.63
2022-11-18T13:28:55.974Z,99932.19
2022-11-18T13:31:25.297Z,99936.72
2022-11-18T13:33:52.192Z,99931.28
2022-11-18T13:36:24.786Z,99940.50
2022-11-18T13:39:03.336Z,99939.97
2022-11-18T13:41:34.336Z,99941.47
2022-11-18T13:44:16.497Z,99949.13
2022-11-18T13:46:44.295Z,99949.38
2022-11-18T13:49:17.147Z,99948.25
2022-11-18T13:51:43.909Z,99948.97
2022-11-18T13:54:25.069Z,99943.41
2022-11-18T13:56:52.529Z,99944.81
2022-11-18T13:59:22.149Z,99945.25
2022-11-18T14:01:54.735Z,99940.16
2022-11-18T14:04:27.216Z,99942.13
2022-11-18T14:06:53.667Z,99943.25
2022-11-18T14:09:28.957Z,99951.44
2022-11-18T14:12:23.742Z,99950.84
2022-11-18T14:14:50.345Z,99953.53
2022-11-18T14:17:18.923Z,99946.78
2022-11-18T14:19:47.867Z,99947.78
2022-11-18T14:22:20.391Z,99950.16
2022-11-18T14:24:58.418Z,99952.31
2022-11-18T14:27:39.505Z,99964.59
2022-11-18T14:30:29.769Z,99960.53
2022-11-18T14:33:20.578Z,99960.69
2022-11-18T14:35:56.830Z,99961.53
2022-11-18T14:41:44.440Z,99962.53
2022-11-18T14:44:13.135Z,99963.44
2022-11-18T14:46:41.183Z,99972.72
2022-11-18T14:49:14.286Z,99968.03
2022-11-18T14:51:40.810Z,99972.88
2022-11-18T14:54:07.139Z,99971.88
2022-11-18T14:56:37.168Z,99974.13
2022-11-18T14:59:03.518Z,99978.03
2022-11-18T15:01:30.933Z,99977.19
2022-11-18T15:03:57.907Z,99976.00
2022-11-18T15:06:24.692Z,99975.91
2022-11-18T15:08:52.890Z,99980.13
2022-11-18T15:11:19.812Z,99978.75
2022-11-18T15:13:46.440Z,99984.00
2022-11-18T15:16:21.928Z,99983.28
2022-11-18T15:18:51.276Z,99980.97
2022-11-18T15:21:17.946Z,99986.47
2022-11-18T15:23:45.294Z,99987.56
2022-11-18T15:26:21.708Z,99997.59
2022-11-18T15:28:49.537Z,99999.59
2022-11-18T15:31:16.605Z,100009.88
2022-11-18T15:33:43.841Z,100010.75
2022-11-18T15:36:17.824Z,100017.13
2022-11-18T15:38:44.865Z,100016.41
2022-11-18T15:41:31.175Z,100021.66
2022-11-18T15:43:59.897Z,100028.03
2022-11-18T15:46:27.886Z,100033.63
2022-11-18T15:48:56.298Z,100031.31
2022-11-18T15:51:24.088Z,100031.81
2022-11-18T15:53:50.648Z,100027.69
2022-11-18T15:56:27.050Z,100027.94
2022-11-18T15:59:10.292Z,100035.94
2022-11-18T16:01:39.191Z,100038.78
2022-11-18T16:04:08.033Z,100046.44
2022-11-18T16:06:34.942Z,100042.91
2022-11-18T16:09:01.456Z,100041.44
2022-11-18T16:11:49.168Z,100042.44
2022-11-18T16:14:18.413Z,100048.63
2022-11-18T16:16:47.187Z,100050.81
2022-11-18T16:19:16.945Z,100050.81
2022-11-18T16:21:48.421Z,100047.91
2022-11-18T16:24:19.161Z,100048.25
2022-11-18T16:26:45.711Z,100058.84
2022-11-18T16:29:13.127Z,100057.50
2022-11-18T16:31:39.791Z,100053.25
2022-11-18T16:34:08.743Z,100055.34
2022-11-18T16:36:36.353Z,100058.47
2022-11-18T16:39:26.015Z,100062.22
2022-11-18T16:41:55.660Z,100065.16
2022-11-18T16:44:22.073Z,100066.59
2022-11-18T16:46:50.733Z,100078.38
2022-11-18T16:49:19.439Z,100082.41
2022-11-18T16:51:49.050Z,100081.91
2022-11-18T16:54:20.253Z,100086.91
2022-11-18T16:56:47.871Z,100094.53
2022-11-18T16:59:21.585Z,100097.06
2022-11-18T17:01:49.693Z,100092.59
2022-11-18T17:04:16.261Z,100099.38
2022-11-18T17:06:42.823Z,100100.28
2022-11-18T17:09:14.094Z,100107.06
2022-11-18T17:11:40.702Z,100113.72
2022-11-18T17:14:07.109Z,100111.25
2022-11-18T17:16:33.545Z,100111.63
2022-11-18T17:19:00.620Z,100117.06
2022-11-18T17:21:29.019Z,100119.00
2022-11-18T17:23:55.702Z,100123.44
2022-11-18T17:26:25.268Z,100120.16
2022-11-18T17:28:51.842Z,100121.50
2022-11-18T17:31:20.797Z,100120.22
2022-11-18T17:33:48.481Z,100125.50
2022-11-18T17:36:17.454Z,100126.91
2022-11-18T17:38:47.061Z,100127.97
2022-11-18T17:41:33.610Z,100129.97
2022-11-18T17:44:01.848Z,100141.63
2022-11-18T17:46:33.425Z,100142.84
2022-11-18T17:49:04.564Z,100146.44
2022-11-18T17:51:31.644Z,100155.00
2022-11-18T17:53:58.393Z,100157.47
2022-11-18T17:56:24.947Z,100162.16
2022-11-18T17:58:52.562Z,100157.56
2022-11-18T18:01:20.860Z,100158.13
2022-11-18T18:03:47.708Z,100147.03
2022-11-18T18:06:14.712Z,100148.84
2022-11-18T18:08:41.493Z,100156.81
2022-11-18T18:11:12.346Z,100160.78
2022-11-18T18:14:14.475Z,100167.72
2022-11-18T18:16:46.199Z,100175.41
2022-11-18T18:19:15.357Z,100172.94
2022-11-18T18:21:41.872Z,100175.19
2022-11-18T18:24:09.193Z,100182.53
2022-11-18T18:26:36.072Z,100174.09
2022-11-18T18:29:03.433Z,100176.97
2022-11-18T18:31:33.860Z,100172.28
2022-11-18T18:34:00.958Z,100175.38
2022-11-18T18:36:27.618Z,100176.66
2022-11-18T18:38:53.937Z,100181.06
2022-11-18T18:41:22.273Z,100182.53
2022-11-18T18:43:49.837Z,100192.84
2022-11-18T18:46:33.955Z,100189.41
2022-11-18T18:49:08.696Z,100196.38
2022-11-18T18:51:40.032Z,100189.28
2022-11-18T18:54:08.036Z,100198.69
2022-11-18T18:56:35.010Z,100205.75
2022-11-18T18:59:04.386Z,100199.66
2022-11-18T19:01:30.879Z,100196.47
2022-11-18T19:03:59.505Z,100204.03
2022-11-18T19:09:19.035Z,100209.69
2022-11-18T19:12:04.224Z,100210.53
2022-11-18T19:14:33.298Z,100223.72
2022-11-18T19:17:09.586Z,100229.25
2022-11-18T19:19:57.008Z,100240.63
2022-11-18T19:22:23.999Z,100240.28
2022-11-18T19:24:51.119Z,100239.50
2022-11-18T19:27:19.081Z,100243.09
2022-11-18T19:29:45.457Z,100247.09
2022-11-18T19:32:12.099Z,100255.63
2022-11-18T19:34:38.699Z,100261.91
2022-11-18T19:37:05.155Z,100260.78
2022-11-18T19:39:31.800Z,100261.44
2022-11-18T19:41:58.658Z,100267.22
2022-11-18T19:44:25.042Z,100266.94
2022-11-18T19:46:52.877Z,100267.59
2022-11-18T19:49:19.368Z,100268.06
2022-11-18T19:51:45.960Z,100276.72
2022-11-18T19:54:12.280Z,100271.09
2022-11-18T19:56:38.822Z,100272.25
2022-11-18T19:59:05.181Z,100275.53
2022-11-18T20:01:31.652Z,100278.63
2022-11-18T20:04:01.619Z,100280.63
2022-11-18T20:06:28.227Z,100277.75
2022-11-18T20:08:55.802Z,100289.00
2022-11-18T20:11:23.238Z,100281.19
2022-11-18T20:13:49.696Z,100297.59
2022-11-18T20:16:18.615Z,100296.81
2022-11-18T20:18:49.292Z,100298.63
2022-11-18T20:21:20.069Z,100298.28
2022-11-18T20:23:47.867Z,100303.03
2022-11-18T20:26:16.548Z,100301.47
2022-11-18T20:28:44.566Z,100312.53
2022-11-18T20:31:15.632Z,100309.53
2022-11-18T20:33:48.280Z,100307.72
2022-11-18T20:36:17.858Z,100318.69
2022-11-18T20:38:49.030Z,100313.72
2022-11-18T20:41:15.558Z,100312.19
2022-11-18T20:43:43.882Z,100314.84
2022-11-18T20:46:14.574Z,100320.63
2022-11-18T20:48:43.660Z,100321.25
2022-11-18T20:51:12.731Z,100319.72
2022-11-18T20:53:41.948Z,100321.09
2022-11-18T20:56:10.078Z,100325.34
2022-11-18T20:58:36.468Z,100328.59
2022-11-18T21:01:17.152Z,100326.25
2022-11-18T21:03:48.976Z,100331.13
2022-11-18T21:06:15.609Z,100325.59
2022-11-18T21:08:42.373Z,100332.16
2022-11-18T21:11:11.165Z,100324.28
2022-11-18T21:13:56.473Z,100326.91
2022-11-18T21:16:23.800Z,100330.84
2022-11-18T21:18:50.333Z,100330.84
2022-11-18T21:21:35.376Z,100335.34
2022-11-18T21:24:02.784Z,100336.91
2022-11-18T21:26:31.624Z,100331.94
2022-11-18T21:29:00.052Z,100342.47
2022-11-18T21:31:27.671Z,100343.25
2022-11-18T21:33:54.481Z,100345.19
2022-11-18T21:36:22.812Z,100352.47
2022-11-18T21:38:49.206Z,100352.53
2022-11-18T21:41:15.830Z,100336.84
2022-11-18T21:46:29.189Z,100347.66
2022-11-18T21:48:59.901Z,100353.56
2022-11-18T21:51:27.091Z,100358.72
2022-11-18T21:53:53.585Z,100356.84
2022-11-18T21:56:22.620Z,100355.72
2022-11-18T21:58:50.027Z,100363.56
2022-11-18T22:01:21.523Z,100368.59
2022-11-18T22:03:55.473Z,100378.97
2022-11-18T22:06:24.459Z,100382.41
2022-11-18T22:08:51.929Z,100378.06
2022-11-18T22:11:20.180Z,100380.69
2022-11-18T22:13:46.560Z,100380.47
2022-11-18T22:16:15.662Z,100382.47
2022-11-18T22:18:44.562Z,100378.56
2022-11-18T22:21:17.528Z,100379.75
2022-11-18T22:23:44.023Z,100381.22
2022-11-18T22:26:21.138Z,100385.56
2022-11-18T22:28:52.365Z,100375.84
2022-11-18T22:31:20.422Z,100379.25
2022-11-18T22:33:47.506Z,100379.19
2022-11-18T22:36:16.396Z,100376.75
2022-11-18T22:38:43.877Z,100389.84
2022-11-18T22:41:31.651Z,100381.06
2022-11-18T22:44:00.382Z,100381.91
2022-11-18T22:46:30.391Z,100375.91
2022-11-18T22:48:57.709Z,100379.78
2022-11-18T22:51:24.396Z,100379.34
2022-11-18T22:54:04.336Z,100380.47
2022-11-18T22:56:37.397Z,100384.88
2022-11-18T22:59:04.193Z,100383.13
2022-11-18T23:01:30.596Z,100391.00
2022-11-18T23:03:56.980Z,100389.22
2022-11-18T23:06:23.315Z,100394.44
2022-11-18T23:08:49.636Z,100397.94
2022-11-18T23:11:44.903Z,100401.59
2022-11-18T23:14:12.047Z,100401.59
2022-11-18T23:16:40.449Z,100399.81
2022-11-18T23:19:09.335Z,100399.50
2022-11-18T23:21:36.064Z,100403.00
2022-11-18T23:24:03.480Z,100398.94
2022-11-18T23:26:30.311Z,100399.78
2022-11-18T23:28:56.757Z,100400.78
2022-11-18T23:31:25.169Z,100410.75
2022-11-18T23:33:52.869Z,100409.91
2022-11-18T23:36:20.189Z,100415.53
2022-11-18T23:38:47.669Z,100414.25
2022-11-18T23:41:16.282Z,100420.13
2022-11-18T23:43:43.003Z,100411.19
2022-11-18T23:46:09.722Z,100411.97
2022-11-18T23:48:38.417Z,100421.97
2022-11-18T23:51:16.582Z,100419.31
2022-11-18T23:53:43.441Z,100414.97
2022-11-18T23:56:18.013Z,100413.59
2022-11-18T23:58:46.727Z,100410.31
